Time;durP1;ratioP1;P1;durP2;ratioP2;P2;SDS_P1;SDS_P2;PMS_P1;PMS_P2;Temp;Humidity;BMP_temperature;BMP_pressure;BME280_temperature;BME280_humidity;BME280_pressure;Samples;Min_cycle;Max_cycle;Signal;HPM_P1;HPM_P2
2022/03/16 00:01:50;;;;;;;144.02;61.17;;;7.00;1.00;;;;;;6098030;23;20022;-88
2022/03/16 00:04:16;;;;;;;149.43;64.43;;;6.80;1.00;;;;;;6073672;23;20084;-88
2022/03/16 00:06:42;;;;;;;149.68;63.70;;;6.90;1.00;;;;;;6122011;23;20025;-87
2022/03/16 00:09:07;;;;;;;150.25;62.55;;;6.40;1.00;;;;;;6123257;23;20022;-88
2022/03/16 00:11:33;;;;;;;155.15;63.38;;;7.00;1.00;;;;;;6123695;23;20024;-87
2022/03/16 00:13:59;;;;;;;176.93;65.35;;;7.10;1.00;;;;;;6123618;23;20025;-87
2022/03/16 00:16:25;;;;;;;162.00;67.25;;;7.10;1.00;;;;;;6121896;23;20057;-89
2022/03/16 00:18:51;;;;;;;156.38;65.57;;;7.20;1.00;;;;;;6120941;23;20028;-87
2022/03/16 00:21:16;;;;;;;239.02;71.68;;;7.10;1.00;;;;;;6119968;23;20064;-93
2022/03/16 00:23:42;;;;;;;202.75;69.20;;;7.10;1.00;;;;;;6143525;23;20022;-89
2022/03/16 00:26:08;;;;;;;172.18;70.75;;;7.50;1.00;;;;;;6093519;23;20023;-92
2022/03/16 00:28:34;;;;;;;187.80;71.85;;;9.20;1.00;;;;;;6120752;23;20100;-88
2022/03/16 00:31:02;;;;;;;178.05;71.60;;;9.60;1.00;;;;;;6145746;23;20021;-87
2022/03/16 00:33:27;;;;;;;179.05;70.22;;;9.10;1.00;;;;;;6097250;23;20020;-87
2022/03/16 00:35:53;;;;;;;185.60;68.50;;;8.80;1.00;;;;;;6123202;23;20050;-87
2022/03/16 00:38:19;;;;;;;177.40;69.00;;;7.10;1.00;;;;;;6121466;23;20488;-88
2022/03/16 00:40:45;;;;;;;177.32;68.07;;;8.10;1.00;;;;;;6096025;23;20109;-87
2022/03/16 00:43:11;;;;;;;176.30;66.63;;;;;;;;;;6121754;23;20099;-87
2022/03/16 00:45:37;;;;;;;217.07;69.32;;;7.10;1.00;;;;;;6119546;23;20098;-87
2022/03/16 00:48:02;;;;;;;168.60;63.85;;;6.60;1.00;;;;;;6122224;23;20017;-86
2022/03/16 00:50:28;;;;;;;198.45;69.03;;;7.00;1.00;;;;;;6121359;23;20468;-87
2022/03/16 00:52:54;;;;;;;187.93;70.45;;;8.60;1.00;;;;;;6123803;23;20010;-87
2022/03/16 00:55:20;;;;;;;181.35;68.75;;;8.90;1.00;;;;;;6122951;23;20096;-84
2022/03/16 00:57:46;;;;;;;185.32;68.70;;;7.70;1.00;;;;;;6124244;23;20425;-87
2022/03/16 01:00:12;;;;;;;156.75;65.95;;;7.10;1.00;;;;;;6097047;23;20048;-90
2022/03/16 01:02:38;;;;;;;164.27;66.88;;;6.20;1.00;;;;;;6122249;23;20417;-87
2022/03/16 01:05:05;;;;;;;185.95;66.45;;;8.20;1.00;;;;;;6121898;23;20022;-87
2022/03/16 01:07:31;;;;;;;199.00;66.18;;;7.10;1.00;;;;;;6095960;23;20398;-87
2022/03/16 01:09:57;;;;;;;217.25;71.38;;;7.20;1.00;;;;;;6122034;23;20041;-87
2022/03/16 01:12:24;;;;;;;160.65;65.07;;;5.50;1.00;;;;;;6097238;23;20401;-87
2022/03/16 01:14:51;;;;;;;172.35;68.88;;;7.20;1.00;;;;;;6123289;23;20022;-88
2022/03/16 01:17:16;;;;;;;187.30;69.82;;;5.30;1.00;;;;;;6122330;23;20054;-88
2022/03/16 01:19:42;;;;;;;202.35;73.30;;;6.00;13.50;;;;;;6098084;23;20029;-87
2022/03/16 01:22:08;;;;;;;204.32;76.55;;;5.60;34.60;;;;;;6122514;23;20152;-87
2022/03/16 01:24:34;;;;;;;278.30;79.47;;;;;;;;;;6124535;23;20018;-87
2022/03/16 01:27:00;;;;;;;196.02;71.75;;;5.50;8.40;;;;;;6121734;23;20014;-91
2022/03/16 01:29:26;;;;;;;239.55;72.55;;;5.70;1.00;;;;;;6124337;23;20451;-87
2022/03/16 01:31:52;;;;;;;194.00;70.72;;;7.40;1.00;;;;;;6124243;23;20014;-88
2022/03/16 01:34:19;;;;;;;211.60;65.60;;;;;;;;;;6121641;23;20451;-90
2022/03/16 01:36:45;;;;;;;601.28;91.80;;;5.10;1.00;;;;;;6122247;23;20028;-87
2022/03/16 01:39:11;;;;;;;183.80;68.45;;;4.80;1.00;;;;;;6097423;23;20088;-89
2022/03/16 01:41:37;;;;;;;177.43;69.03;;;4.80;1.00;;;;;;6097634;23;20026;-87
2022/03/16 01:44:03;;;;;;;227.93;73.60;;;5.10;1.00;;;;;;6124201;23;20018;-88
2022/03/16 01:46:29;;;;;;;205.05;72.65;;;5.20;1.00;;;;;;6121620;23;20032;-87
2022/03/16 01:48:55;;;;;;;212.55;74.15;;;5.20;1.00;;;;;;6124335;23;20014;-91
2022/03/16 01:51:21;;;;;;;202.20;73.60;;;5.80;1.00;;;;;;6120591;23;20010;-88
2022/03/16 01:53:48;;;;;;;236.95;75.65;;;5.50;1.00;;;;;;6098351;23;20034;-90
2022/03/16 01:56:18;;;;;;;319.60;82.53;;;4.90;1.00;;;;;;6122248;23;20018;-92
2022/03/16 01:58:45;;;;;;;187.23;71.63;;;5.70;1.00;;;;;;6122865;23;20093;-88
2022/03/16 02:01:10;;;;;;;195.23;72.30;;;8.10;1.00;;;;;;6121413;23;20026;-87
2022/03/16 02:03:36;;;;;;;206.57;73.47;;;7.70;1.00;;;;;;6122184;23;20018;-87
2022/03/16 02:06:03;;;;;;;269.77;76.50;;;5.80;1.00;;;;;;6146760;23;20017;-89
2022/03/16 02:08:38;;;;;;;263.95;77.38;;;5.70;1.00;;;;;;6123725;23;20337;-88
2022/03/16 02:11:04;;;;;;;197.25;68.18;;;7.70;1.00;;;;;;6123524;23;20026;-95
2022/03/16 02:13:32;;;;;;;185.65;64.53;;;4.50;1.00;;;;;;6123292;23;20025;-87
2022/03/16 02:15:57;;;;;;;179.93;63.78;;;5.10;1.00;;;;;;6073813;23;20026;-88
2022/03/16 02:18:23;;;;;;;175.30;62.08;;;5.00;1.00;;;;;;6121324;23;20105;-88
2022/03/16 02:20:51;;;;;;;252.88;61.83;;;7.00;99.90;;;;;;6095104;23;20029;-89
2022/03/16 02:23:17;;;;;;;;;;;6.30;99.90;;;;;;6121137;23;20113;-87
2022/03/16 02:25:52;;;;;;;178.50;62.85;;;4.80;99.90;;;;;;6145780;23;20387;-87
2022/03/16 02:28:19;;;;;;;204.15;65.13;;;4.80;1.00;;;;;;6144456;23;20049;-87
2022/03/16 02:30:45;;;;;;;190.10;63.53;;;6.80;99.90;;;;;;6122105;23;20080;-88
2022/03/16 02:33:11;;;;;;;235.82;63.40;;;6.60;99.90;;;;;;6121372;23;20041;-87
2022/03/16 02:35:37;;;;;;;230.77;67.78;;;6.20;99.90;;;;;;6123482;23;20025;-87
2022/03/16 02:38:03;;;;;;;172.57;65.50;;;4.70;99.90;;;;;;6121285;23;20018;-88
2022/03/16 02:40:29;;;;;;;166.98;63.25;;;6.00;1.00;;;;;;6124046;23;20014;-87
2022/03/16 02:42:55;;;;;;;189.43;68.15;;;4.80;1.00;;;;;;6098083;23;20029;-88
2022/03/16 02:45:21;;;;;;;176.70;65.00;;;4.80;99.90;;;;;;6123898;23;20018;-87
2022/03/16 02:47:47;;;;;;;199.60;65.28;;;7.20;99.90;;;;;;6124539;23;20018;-88
2022/03/16 02:50:16;;;;;;;206.35;63.80;;;4.00;99.90;;;;;;6125409;23;20025;-88
2022/03/16 02:52:43;;;;;;;384.80;77.00;;;4.60;99.90;;;;;;6124429;23;20080;-88
2022/03/16 02:55:09;;;;;;;163.73;60.17;;;4.70;99.90;;;;;;6126727;23;20531;-89
2022/03/16 02:57:35;;;;;;;161.68;55.85;;;6.60;99.90;;;;;;6124838;23;20018;-88
2022/03/16 03:00:01;;;;;;;164.15;62.50;;;;;;;;;;6126070;23;20018;-88
2022/03/16 03:02:27;;;;;;;213.32;64.15;;;4.60;99.90;;;;;;6099568;23;20445;-87
2022/03/16 03:04:53;;;;;;;225.43;63.53;;;5.90;99.90;;;;;;6148386;23;20049;-88
2022/03/16 03:07:19;;;;;;;719.60;103.93;;;4.90;99.90;;;;;;6124468;23;20108;-87
2022/03/16 03:09:44;;;;;;;672.05;91.57;;;6.70;99.90;;;;;;6124337;23;20040;-87
2022/03/16 03:12:10;;;;;;;147.45;53.67;;;5.70;99.90;;;;;;6124330;23;20030;-88
2022/03/16 03:14:36;;;;;;;709.00;93.38;;;5.20;99.90;;;;;;6099544;23;20057;-87
2022/03/16 03:17:02;;;;;;;238.75;58.70;;;6.30;99.90;;;;;;6123909;23;20018;-88
2022/03/16 03:19:28;;;;;;;258.35;65.90;;;4.00;99.90;;;;;;6124013;23;20018;-87
2022/03/16 03:21:54;;;;;;;137.07;56.13;;;6.70;99.90;;;;;;6099837;23;20025;-87
2022/03/16 03:24:20;;;;;;;160.68;58.30;;;3.90;99.90;;;;;;6124392;23;20461;-87
2022/03/16 03:26:46;;;;;;;190.05;62.88;;;4.20;99.90;;;;;;6124436;23;20382;-89
2022/03/16 03:29:13;;;;;;;250.43;65.78;;;4.20;99.90;;;;;;6125771;23;20097;-88
2022/03/16 03:31:38;;;;;;;255.30;66.50;;;4.20;99.90;;;;;;6123909;23;20068;-87
2022/03/16 03:34:04;;;;;;;193.20;61.58;;;3.80;99.90;;;;;;6148076;23;20022;-87
2022/03/16 03:36:30;;;;;;;162.43;60.30;;;4.20;99.90;;;;;;6123813;23;20068;-88
2022/03/16 03:38:56;;;;;;;193.40;58.03;;;4.20;99.90;;;;;;6126172;23;20077;-88
2022/03/16 03:41:22;;;;;;;392.33;72.38;;;4.10;99.90;;;;;;6099645;23;20053;-88
2022/03/16 03:43:48;;;;;;;163.43;54.75;;;5.60;99.90;;;;;;6125018;23;20065;-87
2022/03/16 03:46:13;;;;;;;182.90;54.88;;;6.60;99.90;;;;;;6099703;23;20453;-89
2022/03/16 03:48:39;;;;;;;243.68;61.55;;;6.40;99.90;;;;;;6100640;23;20018;-86
2022/03/16 03:51:05;;;;;;;138.43;55.65;;;;;;;;;;6099594;23;20076;-87
2022/03/16 03:53:32;;;;;;;179.15;59.42;;;;;;;;;;6098768;23;20018;-88
2022/03/16 03:55:57;;;;;;;307.90;72.75;;;4.10;99.90;;;;;;6124842;23;20022;-87
2022/03/16 03:58:23;;;;;;;159.50;56.28;;;4.10;99.90;;;;;;6122457;23;20029;-87
2022/03/16 04:00:49;;;;;;;182.43;59.40;;;5.80;99.90;;;;;;6147170;23;20026;-88
2022/03/16 04:03:16;;;;;;;190.60;62.05;;;4.50;99.90;;;;;;6122321;23;20010;-89
2022/03/16 04:05:42;;;;;;;286.88;66.50;;;6.90;99.90;;;;;;6097715;23;20022;-87
2022/03/16 04:08:08;;;;;;;483.73;84.78;;;4.30;99.90;;;;;;6123711;23;20049;-88
2022/03/16 04:10:36;;;;;;;1878.80;196.63;;;4.70;99.90;;;;;;6122160;23;20100;-88
2022/03/16 04:13:03;;;;;;;848.40;109.32;;;4.30;99.90;;;;;;6123569;23;20021;-87
2022/03/16 04:15:29;;;;;;;545.05;80.28;;;4.30;99.90;;;;;;6123965;23;20053;-87
2022/03/16 04:17:55;;;;;;;345.60;70.80;;;4.40;99.90;;;;;;6123021;23;20144;-87
2022/03/16 04:20:20;;;;;;;1155.45;126.22;;;4.30;99.90;;;;;;6122052;23;20460;-87
2022/03/16 04:22:46;;;;;;;372.75;64.55;;;4.20;99.90;;;;;;6097886;23;20026;-88
2022/03/16 04:25:12;;;;;;;270.60;58.95;;;4.10;99.90;;;;;;6147522;23;20061;-87
2022/03/16 04:27:38;;;;;;;736.60;89.15;;;5.70;99.90;;;;;;6122476;23;20433;-88
2022/03/16 04:30:04;;;;;;;201.57;51.42;;;4.20;99.90;;;;;;6124474;23;20032;-87
2022/03/16 04:32:30;;;;;;;222.73;52.78;;;4.20;99.90;;;;;;6122583;23;20060;-87
2022/03/16 04:34:56;;;;;;;196.95;51.65;;;5.70;99.90;;;;;;6123801;23;20018;-87
2022/03/16 04:37:22;;;;;;;131.32;46.72;;;6.40;99.90;;;;;;6124501;23;20054;-87
2022/03/16 04:39:47;;;;;;;100.13;43.22;;;4.30;99.90;;;;;;6122225;23;20088;-90
2022/03/16 04:42:13;;;;;;;612.97;79.03;;;6.10;99.90;;;;;;6123119;23;20021;-87
2022/03/16 04:44:39;;;;;;;104.13;43.45;;;3.80;99.90;;;;;;6123030;23;20014;-87
2022/03/16 04:47:05;;;;;;;104.18;43.53;;;3.90;99.90;;;;;;6074919;23;20096;-86
2022/03/16 04:49:31;;;;;;;143.00;45.33;;;4.10;99.90;;;;;;6122059;23;20436;-86
2022/03/16 04:51:56;;;;;;;268.83;52.22;;;5.30;99.90;;;;;;6122947;23;20022;-87
2022/03/16 04:54:23;;;;;;;107.35;44.53;;;;;;;;;;6099159;23;20484;-86
2022/03/16 04:56:48;;;;;;;88.07;40.03;;;3.90;99.90;;;;;;6098792;23;20021;-87
2022/03/16 04:59:14;;;;;;;83.47;39.58;;;3.90;99.90;;;;;;6125204;23;20282;-87
2022/03/16 05:01:40;;;;;;;127.30;41.33;;;6.10;99.90;;;;;;6098597;23;20018;-88
2022/03/16 05:04:06;;;;;;;129.27;40.00;;;;;;;;;;6098528;23;20489;-88
2022/03/16 05:06:32;;;;;;;68.68;35.03;;;2.50;99.90;;;;;;6124345;23;20022;-88
2022/03/16 05:08:58;;;;;;;175.77;39.47;;;4.10;99.90;;;;;;6123561;23;20084;-87
2022/03/16 05:11:23;;;;;;;236.52;45.67;;;4.10;99.90;;;;;;6123479;23;20453;-88
2022/03/16 05:13:49;;;;;;;76.82;36.17;;;3.10;99.90;;;;;;6123172;23;20092;-88
2022/03/16 05:16:16;;;;;;;321.48;52.53;;;6.30;99.90;;;;;;6123927;23;20049;-87
2022/03/16 05:18:44;;;;;;;73.93;36.10;;;3.80;99.90;;;;;;6148721;23;20033;-88
2022/03/16 05:21:10;;;;;;;69.55;36.78;;;;;;;;;;6099386;23;20018;-88
2022/03/16 05:23:36;;;;;;;74.07;36.30;;;3.80;99.90;;;;;;6098782;23;20135;-89
2022/03/16 05:26:03;;;;;;;85.45;37.60;;;4.00;99.90;;;;;;6122445;23;20025;-89
2022/03/16 05:28:29;;;;;;;74.80;38.55;;;3.80;99.90;;;;;;6148669;23;20018;-88
2022/03/16 05:30:55;;;;;;;82.28;40.47;;;3.50;99.90;;;;;;6122606;23;20025;-88
2022/03/16 05:33:39;;;;;;;76.88;39.08;;;2.90;99.90;;;;;;6099698;23;20410;-90
2022/03/16 05:36:05;;;;;;;95.72;43.78;;;3.80;99.90;;;;;;6124287;23;20022;-88
2022/03/16 05:38:31;;;;;;;163.70;50.83;;;;;;;;;;6124506;23;20018;-88
2022/03/16 05:40:57;;;;;;;218.07;56.70;;;3.70;99.90;;;;;;6124672;23;20058;-87
2022/03/16 05:43:23;;;;;;;177.80;50.38;;;;;;;;;;6100142;23;20018;-88
2022/03/16 05:45:50;;;;;;;234.02;55.95;;;;;;;;;;6126684;23;20022;-88
2022/03/16 05:48:16;;;;;;;309.10;61.55;;;6.10;99.90;;;;;;6124902;23;20018;-88
2022/03/16 05:50:45;;;;;;;110.15;50.03;;;6.30;99.90;;;;;;6126629;23;20026;-88
2022/03/16 05:53:11;;;;;;;140.90;55.00;;;3.30;99.90;;;;;;6100704;23;20018;-88
2022/03/16 05:55:37;;;;;;;304.52;69.25;;;;;;;;;;6126043;23;20022;-88
2022/03/16 05:58:03;;;;;;;244.48;65.05;;;5.50;99.90;;;;;;6124569;23;20060;-89
2022/03/16 06:00:31;;;;;;;456.50;90.57;;;5.20;99.90;;;;;;6099970;23;20021;-89
2022/03/16 06:02:57;;;;;;;156.50;62.70;;;7.40;99.90;;;;;;6125246;23;20025;-88
2022/03/16 06:05:23;;;;;;;253.65;69.03;;;5.10;99.90;;;;;;6128302;23;20014;-92
2022/03/16 06:07:49;;;;;;;211.88;71.68;;;;;;;;;;6092482;23;20074;-87
2022/03/16 06:10:17;;;;;;;139.13;61.83;;;5.20;99.90;;;;;;6124460;23;20029;-89
2022/03/16 06:12:53;;;;;;;171.18;65.03;;;5.40;99.90;;;;;;6125999;23;20065;-89
2022/03/16 06:15:20;;;;;;;139.82;58.60;;;5.20;99.90;;;;;;6151412;23;20018;-89
2022/03/16 06:17:46;;;;;;;129.32;57.28;;;5.80;99.90;;;;;;6150435;23;20030;-92
2022/03/16 06:20:11;;;;;;;133.77;58.92;;;5.50;99.90;;;;;;6126482;23;20017;-89
2022/03/16 06:22:37;;;;;;;133.65;60.05;;;5.40;99.90;;;;;;6130905;23;20022;-89
2022/03/16 06:25:03;;;;;;;191.77;67.13;;;5.40;99.90;;;;;;6125340;23;20089;-88
2022/03/16 06:27:29;;;;;;;169.63;69.78;;;5.60;99.90;;;;;;6123529;23;20066;-88
2022/03/16 06:29:55;;;;;;;162.40;66.43;;;6.60;99.90;;;;;;6098996;23;20072;-88
2022/03/16 06:32:20;;;;;;;166.18;69.63;;;6.00;99.90;;;;;;6123108;23;20026;-88
2022/03/16 06:34:46;;;;;;;148.05;67.70;;;5.80;99.90;;;;;;6099206;23;20021;-88
2022/03/16 06:37:13;;;;;;;131.82;66.38;;;6.30;99.90;;;;;;6100543;23;20018;-88
2022/03/16 06:39:41;;;;;;;164.90;71.65;;;6.20;99.90;;;;;;6123510;23;20017;-91
2022/03/16 06:42:07;;;;;;;147.52;70.13;;;6.30;99.90;;;;;;6098811;23;20104;-89
2022/03/16 06:44:33;;;;;;;147.00;67.80;;;6.20;99.90;;;;;;6097799;23;20057;-88
2022/03/16 06:46:58;;;;;;;152.65;69.18;;;8.20;99.90;;;;;;6098229;23;20025;-88
2022/03/16 06:49:24;;;;;;;157.68;70.47;;;6.40;99.90;;;;;;6098652;23;20018;-89
2022/03/16 06:51:50;;;;;;;124.40;64.65;;;6.10;99.90;;;;;;6050685;23;20024;-88
2022/03/16 06:54:16;;;;;;;131.48;64.85;;;;;;;;;;6124626;23;20021;-90
2022/03/16 06:56:42;;;;;;;119.82;61.10;;;5.40;99.90;;;;;;6098240;23;20018;-89
2022/03/16 06:59:08;;;;;;;140.45;67.13;;;5.60;99.90;;;;;;6074547;23;20113;-88
2022/03/16 07:01:33;;;;;;;155.80;69.25;;;5.50;99.90;;;;;;6098619;23;20057;-89
2022/03/16 07:03:59;;;;;;;142.07;67.30;;;6.20;99.90;;;;;;6123248;23;20025;-89
2022/03/16 07:06:25;;;;;;;128.00;65.05;;;5.90;99.90;;;;;;6098922;23;20061;-88
2022/03/16 07:08:51;;;;;;;133.50;64.70;;;7.80;99.90;;;;;;6124603;23;20030;-89
2022/03/16 07:11:17;;;;;;;122.43;62.17;;;;;;;;;;6123170;23;20018;-88
2022/03/16 07:14:30;;;;;;;140.32;65.43;;;5.80;99.90;;;;;;6098693;23;20014;-89
2022/03/16 07:16:29;;;;;;;115.00;61.65;;;5.80;99.90;;;;;;6102548;23;20022;-89
2022/03/16 07:18:56;;;;;;;119.63;61.15;;;;;;;;;;6147740;23;20077;-88
2022/03/16 07:21:22;;;;;;;121.75;60.28;;;5.80;99.90;;;;;;6097908;23;20302;-88
2022/03/16 07:23:47;;;;;;;124.78;62.10;;;8.20;99.90;;;;;;6052862;23;20028;-88
2022/03/16 07:26:13;;;;;;;118.60;61.80;;;8.30;99.90;;;;;;6101626;23;20021;-89
2022/03/16 07:28:39;;;;;;;106.68;60.53;;;6.40;99.90;;;;;;6125556;23;20441;-89
2022/03/16 07:31:05;;;;;;;109.10;57.85;;;6.30;99.90;;;;;;6101645;23;20017;-89
2022/03/16 07:33:30;;;;;;;102.07;57.50;;;6.20;99.90;;;;;;6151521;23;20049;-89
2022/03/16 07:35:56;;;;;;;91.70;54.75;;;6.10;99.90;;;;;;6126579;23;20099;-89
2022/03/16 07:38:22;;;;;;;110.70;57.10;;;6.90;99.90;;;;;;6102767;23;20033;-89
2022/03/16 07:40:48;;;;;;;105.65;57.80;;;8.80;99.90;;;;;;6101564;23;20014;-90
2022/03/16 07:43:14;;;;;;;92.82;52.13;;;6.90;99.90;;;;;;6102427;23;20014;-88
2022/03/16 07:45:40;;;;;;;87.55;53.00;;;7.00;99.90;;;;;;6078983;23;20017;-89
2022/03/16 07:48:06;;;;;;;85.57;50.10;;;7.60;99.90;;;;;;6078243;23;20021;-89
2022/03/16 07:50:32;;;;;;;76.30;48.78;;;7.30;99.90;;;;;;6102180;23;20025;-89
2022/03/16 07:52:58;;;;;;;82.25;49.95;;;9.70;99.90;;;;;;6077941;23;20018;-89
2022/03/16 07:59:05;;;;;;;66.68;41.42;;;7.60;99.90;;;;;;6128399;23;20443;-90
2022/03/16 08:01:34;;;;;;;67.03;42.63;;;9.90;99.90;;;;;;6076471;23;20054;-89
2022/03/16 08:04:02;;;;;;;65.57;41.05;;;8.30;99.90;;;;;;6125440;23;20097;-89
2022/03/16 08:06:28;;;;;;;59.50;37.85;;;8.20;99.90;;;;;;6077539;23;20018;-89
2022/03/16 08:08:53;;;;;;;56.03;36.63;;;8.10;99.90;;;;;;6077158;23;20040;-90
2022/03/16 08:11:19;;;;;;;62.28;37.35;;;8.30;99.90;;;;;;6077052;23;20488;-89
2022/03/16 08:13:45;;;;;;;52.58;34.08;;;8.60;99.90;;;;;;6053032;23;20053;-88
2022/03/16 08:16:11;;;;;;;51.95;32.25;;;;;;;;;;6149658;23;20081;-89
2022/03/16 08:18:37;;;;;;;54.25;34.22;;;8.70;99.90;;;;;;6100608;23;20022;-89
2022/03/16 08:21:05;;;;;;;47.92;30.02;;;;;;;;;;6126307;23;20018;-88
2022/03/16 08:23:31;;;;;;;47.92;31.08;;;9.50;99.90;;;;;;6125078;23;20022;-88
2022/03/16 08:25:57;;;;;;;43.75;27.92;;;9.90;98.50;;;;;;6124940;23;20021;-89
2022/03/16 08:28:23;;;;;;;48.45;28.40;;;12.50;87.60;;;;;;6076650;23;20014;-88
2022/03/16 08:30:49;;;;;;;37.42;26.55;;;11.60;91.50;;;;;;6052764;23;20018;-89
2022/03/16 08:33:15;;;;;;;39.97;25.52;;;13.00;63.70;;;;;;6052679;23;20022;-87
2022/03/16 08:35:46;;;;;;;33.55;24.33;;;12.50;47.30;;;;;;6076818;23;20014;-88
2022/03/16 08:38:12;;;;;;;35.58;21.83;;;12.70;32.10;;;;;;6101874;23;20037;-88
2022/03/16 08:40:38;;;;;;;39.33;22.85;;;13.10;14.40;;;;;;6077717;23;20017;-88
2022/03/16 08:43:04;;;;;;;37.38;22.58;;;13.10;13.70;;;;;;6124898;23;20073;-89
2022/03/16 08:45:30;;;;;;;35.00;22.05;;;12.40;18.30;;;;;;6100711;23;20110;-89
2022/03/16 08:47:56;;;;;;;37.42;21.25;;;13.60;11.90;;;;;;6125188;23;20043;-89
2022/03/16 08:53:53;;;;;;;36.92;21.75;;;14.10;1.00;;;;;;6124764;23;20026;-90
2022/03/16 08:56:19;;;;;;;33.47;20.98;;;15.40;1.00;;;;;;6100174;23;20088;-90
2022/03/16 08:58:45;;;;;;;34.78;22.05;;;14.60;1.00;;;;;;6100205;23;20053;-86
2022/03/16 09:01:10;;;;;;;36.92;21.48;;;14.70;1.00;;;;;;6074069;23;20088;-87
2022/03/16 09:03:36;;;;;;;38.80;22.52;;;14.70;1.00;;;;;;6099848;23;20028;-87
2022/03/16 09:06:02;;;;;;;39.20;22.25;;;15.00;1.00;;;;;;6100239;23;20022;-88
2022/03/16 09:08:28;;;;;;;35.58;22.08;;;15.30;1.00;;;;;;6100514;23;20021;-88
2022/03/16 09:10:57;;;;;;;37.60;22.70;;;15.10;1.00;;;;;;6124788;23;20441;-87
2022/03/16 09:13:23;;;;;;;36.05;21.75;;;15.80;1.00;;;;;;6125205;23;20064;-88
2022/03/16 09:15:51;;;;;;;32.55;21.25;;;16.20;1.00;;;;;;6100675;23;20096;-89
2022/03/16 09:18:20;;;;;;;37.72;20.85;;;16.60;1.00;;;;;;6125094;23;20024;-88
2022/03/16 09:20:46;;;;;;;33.72;20.90;;;15.90;1.00;;;;;;6076834;23;20092;-88
2022/03/16 09:23:12;;;;;;;34.50;20.65;;;16.10;1.00;;;;;;6123547;23;20037;-88
2022/03/16 09:25:40;;;;;;;33.80;20.17;;;16.10;1.00;;;;;;6124773;23;20460;-88
2022/03/16 09:28:08;;;;;;;35.78;20.77;;;15.90;1.00;;;;;;6100723;23;20468;-89
2022/03/16 09:30:34;;;;;;;32.42;18.05;;;16.80;1.00;;;;;;6100241;23;20076;-89
2022/03/16 09:33:00;;;;;;;35.60;19.88;;;17.50;1.00;;;;;;6125093;23;20049;-88
2022/03/16 09:36:12;;;;;;;33.08;18.58;;;18.20;1.00;;;;;;6125889;23;20037;-88
2022/03/16 09:42:25;;;;;;;27.40;17.25;;;19.30;1.00;;;;;;6126173;23;20387;-88
2022/03/16 09:45:03;;;;;;;29.00;16.90;;;19.50;1.00;;;;;;6125797;23;20041;-88
2022/03/16 09:47:29;;;;;;;;;;;18.30;1.00;;;;;;6124743;23;20078;-88
2022/03/16 09:49:55;;;;;;;24.23;15.63;;;17.60;1.00;;;;;;6123741;23;19916;-89
2022/03/16 09:52:23;;;;;;;24.20;14.25;;;18.50;1.00;;;;;;6075862;23;20160;-88
2022/03/16 09:54:50;;;;;;;25.02;15.02;;;17.90;1.00;;;;;;6124236;23;20048;-88
2022/03/16 09:57:16;;;;;;;25.88;14.20;;;18.60;1.00;;;;;;6075579;23;20089;-88
2022/03/16 09:59:43;;;;;;;22.85;14.25;;;18.70;1.00;;;;;;6124730;23;20490;-95
2022/03/16 10:02:16;;;;;;;25.10;13.02;;;18.00;1.00;;;;;;6121396;23;20050;-86
2022/03/16 10:04:47;;;;;;;26.33;12.68;;;17.70;1.00;;;;;;6122523;23;20045;-88
2022/03/16 10:07:13;;;;;;;22.60;12.93;;;18.40;1.00;;;;;;6123743;23;20093;-88
2022/03/16 10:15:13;;;;;;;23.55;11.80;;;17.90;1.00;;;;;;6123103;23;20317;-88
2022/03/16 10:17:44;;;;;;;23.35;12.30;;;18.10;1.00;;;;;;6122326;23;20463;-87
2022/03/16 10:20:21;;;;;;;19.17;11.70;;;16.70;1.00;;;;;;6123422;23;20022;-86
2022/03/16 10:23:04;;;;;;;23.25;12.18;;;16.30;1.00;;;;;;6124078;23;20093;-88
2022/03/16 10:25:41;;;;;;;19.40;12.00;;;15.60;1.00;;;;;;6122137;23;20088;-87
2022/03/16 10:28:16;;;;;;;21.98;12.65;;;15.60;1.00;;;;;;6122802;23;20017;-88
2022/03/16 10:30:57;;;;;;;22.17;12.13;;;16.20;1.00;;;;;;6098387;23;20021;-87
2022/03/16 10:33:30;;;;;;;19.83;11.32;;;16.50;1.00;;;;;;6124384;23;20025;-88
2022/03/16 10:36:05;;;;;;;19.92;11.15;;;16.70;1.00;;;;;;6099332;23;20018;-88
2022/03/16 10:38:39;;;;;;;20.00;12.15;;;16.60;1.00;;;;;;6124612;23;20021;-88
2022/03/16 10:46:52;;;;;;;22.05;12.05;;;15.20;1.00;;;;;;6121887;23;20022;-86
2022/03/16 10:49:21;;;;;;;22.60;11.98;;;15.20;1.00;;;;;;6124708;23;20021;-88
2022/03/16 10:52:05;;;;;;;22.02;11.90;;;14.20;1.00;;;;;;6124565;23;20444;-89
2022/03/16 10:54:36;;;;;;;23.13;12.13;;;15.60;1.00;;;;;;6099224;23;20515;-86
2022/03/16 10:57:08;;;;;;;20.70;11.90;;;15.60;1.00;;;;;;6126006;23;20346;-88
2022/03/16 10:59:34;;;;;;;21.23;11.98;;;15.80;1.00;;;;;;6150317;23;20349;-86
2022/03/16 11:02:15;;;;;;;19.25;11.70;;;16.20;1.00;;;;;;6125779;23;20313;-86
2022/03/16 11:04:43;;;;;;;29.40;12.65;;;16.70;1.00;;;;;;6126765;23;20088;-87
2022/03/16 11:07:09;;;;;;;23.08;12.18;;;17.00;1.00;;;;;;6100557;23;20394;-87
2022/03/16 11:09:36;;;;;;;21.23;12.30;;;16.80;1.00;;;;;;6126287;23;20077;-87
2022/03/16 11:14:49;;;;;;;23.17;10.93;;;16.70;1.00;;;;;;6123668;23;20026;-87
2022/03/16 11:17:16;;;;;;;20.73;11.73;;;16.20;1.00;;;;;;6124793;23;20037;-87
2022/03/16 11:19:44;;;;;;;22.27;11.60;;;17.50;1.00;;;;;;6123015;23;20259;-88
2022/03/16 11:25:59;;;;;;;24.70;12.25;;;17.20;1.00;;;;;;6123711;23;20022;-87
2022/03/16 11:29:03;;;;;;;21.40;12.05;;;17.20;1.00;;;;;;6121738;23;20114;-89
2022/03/16 11:31:34;;;;;;;18.85;11.65;;;17.40;1.00;;;;;;6120693;23;20044;-87
2022/03/16 11:34:05;;;;;;;21.55;11.75;;;18.10;1.00;;;;;;6123940;23;20014;-88
2022/03/16 11:36:41;;;;;;;18.52;10.85;;;18.90;1.00;;;;;;6124722;23;20069;-89
2022/03/16 11:39:19;;;;;;;19.17;10.85;;;18.90;1.00;;;;;;6124511;23;20057;-88
2022/03/16 11:41:50;;;;;;;22.45;12.30;;;18.80;1.00;;;;;;6098999;23;20022;-87
2022/03/16 11:44:25;;;;;;;23.15;11.60;;;18.70;1.00;;;;;;6123331;23;20105;-88
2022/03/16 11:47:15;;;;;;;22.48;11.88;;;19.10;1.00;;;;;;6123184;23;20026;-91
2022/03/16 11:49:45;;;;;;;20.42;12.00;;;19.10;1.00;;;;;;6122614;23;20026;-86
2022/03/16 11:52:12;;;;;;;21.38;11.85;;;20.30;1.00;;;;;;6123481;23;20018;-87
2022/03/16 11:54:44;;;;;;;20.37;10.73;;;18.80;1.00;;;;;;6124582;23;20029;-87
2022/03/16 11:57:11;;;;;;;21.00;12.02;;;19.20;1.00;;;;;;6124816;23;20045;-88
2022/03/16 11:59:44;;;;;;;21.60;11.80;;;19.50;1.00;;;;;;6125617;23;20026;-88
2022/03/16 12:02:26;;;;;;;19.60;10.55;;;19.70;1.00;;;;;;6121094;23;20049;-88
2022/03/16 12:05:00;;;;;;;23.33;10.88;;;20.00;1.00;;;;;;6124165;23;20025;-92
2022/03/16 12:07:29;;;;;;;17.10;9.27;;;19.60;1.00;;;;;;6122842;23;20014;-87
2022/03/16 12:09:55;;;;;;;18.00;9.05;;;18.80;1.00;;;;;;6124485;23;20092;-87
2022/03/16 12:15:31;;;;;;;21.48;10.60;;;16.00;1.00;;;;;;6123476;23;20460;-87
2022/03/16 12:17:57;;;;;;;21.02;11.20;;;14.80;1.00;;;;;;6122304;23;20138;-89
2022/03/16 12:20:23;;;;;;;24.05;12.27;;;;;;;;;;6098038;23;20023;-88
2022/03/16 12:23:00;;;;;;;25.40;12.48;;;13.90;1.00;;;;;;6097270;23;20093;-88
2022/03/16 12:25:26;;;;;;;20.80;12.40;;;13.60;1.00;;;;;;6098960;23;20022;-89
2022/03/16 12:35:52;;;;;;;;;;;;;;;;;;;;;
2022/03/16 12:46:42;;;;;;;;;;;;;;;;;;;;;
2022/03/16 12:49:33;;;;;;;24.83;14.15;;;12.10;1.00;;;;;;6009651;23;20199;-90
2022/03/16 12:52:42;;;;;;;25.17;14.45;;;13.20;1.00;;;;;;6022340;23;20042;-88
2022/03/16 12:55:21;;;;;;;26.65;14.60;;;13.00;1.00;;;;;;6063701;23;20030;-89
2022/03/16 13:02:01;;;;;;;25.15;15.02;;;13.20;1.00;;;;;;6122156;23;20081;-88
2022/03/16 13:08:09;;;;;;;29.88;15.48;;;11.90;1.00;;;;;;6121733;23;20026;-90
2022/03/16 13:19:32;;;;;;;27.60;15.48;;;12.70;1.00;;;;;;6005295;23;20417;-89
2022/03/16 13:30:23;;;;;;;28.40;16.25;;;12.40;1.00;;;;;;5793473;24;20455;-90
2022/03/16 13:47:24;;;;;;;29.65;16.85;;;13.50;1.00;;;;;;6203412;22;20371;-91
2022/03/16 13:49:58;;;;;;;27.77;15.80;;;13.60;1.00;;;;;;6140417;23;20059;-89
2022/03/16 13:52:27;;;;;;;33.25;16.85;;;13.70;1.00;;;;;;6116993;23;20017;-89
2022/03/16 13:54:56;;;;;;;26.98;15.50;;;14.00;1.00;;;;;;6141226;23;20016;-90
2022/03/16 13:57:28;;;;;;;28.58;17.05;;;13.90;1.00;;;;;;6141498;23;20020;-89
2022/03/16 14:00:06;;;;;;;30.15;16.98;;;14.80;1.00;;;;;;6192668;23;20036;-90
2022/03/16 14:02:32;;;;;;;29.20;15.95;;;14.80;1.00;;;;;;6166532;23;20320;-90
2022/03/16 14:05:04;;;;;;;30.00;16.13;;;14.10;1.00;;;;;;6141078;23;20281;-90
2022/03/16 14:07:34;;;;;;;24.13;15.00;;;14.00;1.00;;;;;;6193297;23;20016;-87
2022/03/16 14:10:01;;;;;;;29.05;16.58;;;13.90;1.00;;;;;;6166265;23;20087;-87
2022/03/16 14:12:41;;;;;;;28.17;16.50;;;13.80;1.00;;;;;;6192309;23;20108;-90